createdAt,value
2022-10-14T15:37:45.025Z,1008.44
2022-10-14T15:38:52.732Z,1008.42
2022-10-14T15:39:45.021Z,1008.39
2022-10-14T15:40:44.969Z,1008.41
2022-10-14T15:41:44.974Z,1008.48
2022-10-14T15:42:44.954Z,1008.47
2022-10-14T15:43:45.085Z,1008.51
2022-10-14T15:44:44.930Z,1008.46
2022-10-14T15:45:44.959Z,1008.48
2022-10-14T15:46:44.889Z,1008.45
2022-10-14T15:47:44.998Z,1008.41
2022-10-14T15:48:44.860Z,1008.44
2022-10-14T15:49:44.856Z,1008.41
2022-10-14T15:50:44.859Z,1008.40
2022-10-14T15:51:44.836Z,1008.38
2022-10-14T15:52:44.824Z,1008.32
2022-10-14T15:53:44.849Z,1008.35
2022-10-14T15:54:44.798Z,1008.39
2022-10-14T15:55:44.801Z,1008.32
2022-10-14T15:56:44.816Z,1008.34
2022-10-14T15:57:44.796Z,1008.34
2022-10-14T15:58:44.752Z,1008.29
2022-10-14T15:59:44.749Z,1008.33
2022-10-14T16:00:44.745Z,1008.28
2022-10-14T16:01:44.797Z,1008.27
2022-10-14T16:02:44.715Z,1008.29
2022-10-14T16:03:44.720Z,1008.30
2022-10-14T16:05:00.482Z,1008.23
2022-10-14T16:05:45.788Z,1008.29
2022-10-14T16:06:52.316Z,1008.33
2022-10-14T16:07:44.671Z,1008.22
2022-10-14T16:08:44.716Z,1008.27
2022-10-14T16:09:44.695Z,1008.21
2022-10-14T16:10:44.671Z,1008.21
2022-10-14T16:11:44.672Z,1008.22
2022-10-14T16:12:44.698Z,1008.28
2022-10-14T16:13:44.623Z,1008.23
2022-10-14T16:14:44.603Z,1008.26
2022-10-14T16:15:44.586Z,1008.23
2022-10-14T16:16:44.562Z,1008.21
2022-10-14T16:17:47.536Z,1008.19
2022-10-14T16:18:45.552Z,1008.16
2022-10-14T16:19:44.527Z,1008.19
2022-10-14T16:20:44.537Z,1008.19
2022-10-14T16:21:44.509Z,1008.13
2022-10-14T16:22:44.507Z,1008.19
2022-10-14T16:23:44.504Z,1008.21
2022-10-14T16:24:44.486Z,1008.15
2022-10-14T16:25:44.510Z,1008.19
2022-10-14T16:26:44.464Z,1008.18
2022-10-14T16:27:44.445Z,1008.13
2022-10-14T16:28:44.568Z,1008.16
2022-10-14T16:29:44.437Z,1008.11
2022-10-14T16:30:44.439Z,1008.16
2022-10-14T16:31:44.412Z,1008.17
2022-10-14T16:32:44.391Z,1008.12
2022-10-14T16:33:45.792Z,1008.09
2022-10-14T16:34:44.378Z,1008.07
2022-10-14T16:35:44.373Z,1008.14
2022-10-14T16:36:44.361Z,1008.10
2022-10-14T16:37:44.360Z,1008.11
2022-10-14T16:38:44.334Z,1008.04
2022-10-14T16:39:44.329Z,1008.03
2022-10-14T16:40:44.319Z,1008.03
2022-10-14T16:41:44.319Z,1008.05
2022-10-14T16:42:44.285Z,1008.04
2022-10-14T16:43:44.284Z,1008.05
2022-10-14T16:44:44.263Z,1008.06
2022-10-14T16:45:44.253Z,1008.02
2022-10-14T16:46:44.246Z,1008.01
2022-10-14T16:47:44.241Z,1007.98
2022-10-14T16:48:44.234Z,1008.04
2022-10-14T16:49:44.210Z,1008.01
2022-10-14T16:50:44.207Z,1008.01
2022-10-14T16:51:44.207Z,1007.99
2022-10-14T16:52:44.181Z,1007.96
2022-10-14T16:53:44.196Z,1007.94
2022-10-14T16:54:44.156Z,1007.95
2022-10-14T16:55:44.151Z,1007.98
2022-10-14T16:56:45.110Z,1007.94
2022-10-14T16:57:44.145Z,1007.98
2022-10-14T16:58:44.114Z,1008.05
2022-10-14T16:59:44.144Z,1008.03
2022-10-14T17:00:44.095Z,1008.01
2022-10-14T17:01:44.131Z,1007.99
2022-10-14T17:02:44.075Z,1008.01
2022-10-14T17:03:44.061Z,1008.01
2022-10-14T17:04:44.056Z,1008.02
2022-10-14T17:05:44.086Z,1007.99
2022-10-14T17:06:44.029Z,1008.00
2022-10-14T17:07:44.027Z,1008.00
2022-10-14T17:08:44.008Z,1007.96
2022-10-14T17:09:44.005Z,1007.99
2022-10-14T17:10:44.002Z,1007.94
2022-10-14T17:11:43.992Z,1007.96
2022-10-14T17:12:43.969Z,1008.00
2022-10-14T17:13:43.978Z,1008.01
2022-10-14T17:14:43.954Z,1008.00
2022-10-14T17:15:43.934Z,1008.07
2022-10-14T17:16:43.990Z,1008.03
2022-10-14T17:17:45.109Z,1008.02
2022-10-14T17:18:43.936Z,1008.01
2022-10-14T17:19:43.902Z,1007.99
2022-10-14T17:20:43.899Z,1007.97
2022-10-14T17:21:43.875Z,1007.98
2022-10-14T17:22:43.869Z,1007.98
2022-10-14T17:23:43.847Z,1008.03
2022-10-14T17:24:43.841Z,1007.99
2022-10-14T17:25:43.826Z,1008.00
2022-10-14T17:26:43.834Z,1007.92
2022-10-14T17:27:43.830Z,1007.98
2022-10-14T17:28:43.879Z,1007.96
2022-10-14T17:29:43.810Z,1007.98
2022-10-14T17:30:43.782Z,1007.96
2022-10-14T17:31:44.248Z,1007.91
2022-10-14T17:32:43.763Z,1007.92
2022-10-14T17:33:43.745Z,1007.98
2022-10-14T17:34:43.785Z,1007.96
2022-10-14T17:35:43.735Z,1007.94
2022-10-14T17:36:43.721Z,1007.94
2022-10-14T17:37:43.715Z,1007.98
2022-10-14T17:38:43.710Z,1007.97
2022-10-14T17:39:43.685Z,1007.97
2022-10-14T17:40:43.667Z,1008.00
2022-10-14T17:41:43.666Z,1007.99
2022-10-14T17:42:43.654Z,1008.01
2022-10-14T17:43:43.656Z,1007.98
2022-10-14T17:44:53.286Z,1007.93
2022-10-14T17:45:43.637Z,1007.91
2022-10-14T17:46:43.685Z,1007.85
2022-10-14T17:47:51.256Z,1007.86
2022-10-14T17:48:43.649Z,1007.81
2022-10-14T17:49:43.627Z,1007.76
2022-10-14T17:50:43.578Z,1007.77
2022-10-14T17:51:43.620Z,1007.84
2022-10-14T17:52:43.594Z,1007.86
2022-10-14T17:53:43.551Z,1007.88
2022-10-14T17:54:43.528Z,1007.81
2022-10-14T17:55:43.526Z,1007.85
2022-10-14T17:56:43.661Z,1007.87
2022-10-14T17:57:43.488Z,1007.85
2022-10-14T17:58:43.484Z,1007.79
2022-10-14T17:59:43.489Z,1007.84
2022-10-14T18:00:43.484Z,1007.85
2022-10-14T18:02:01.447Z,1007.82
2022-10-14T18:02:44.574Z,1007.78
2022-10-14T18:03:43.432Z,1007.78
2022-10-14T18:04:43.442Z,1007.82
2022-10-14T18:05:46.591Z,1007.78
2022-10-14T18:06:44.397Z,1007.78
2022-10-14T18:07:43.420Z,1007.74
2022-10-14T18:08:43.373Z,1007.76
2022-10-14T18:09:43.380Z,1007.75
2022-10-14T18:10:43.379Z,1007.75
2022-10-14T18:12:44.328Z,1007.78
2022-10-14T18:13:43.332Z,1007.77
2022-10-14T18:14:43.312Z,1007.73
2022-10-14T18:15:43.307Z,1007.74
2022-10-14T18:16:43.326Z,1007.77
2022-10-14T18:17:43.301Z,1007.71
2022-10-14T18:18:43.317Z,1007.75
2022-10-14T18:19:46.107Z,1007.75
2022-10-14T18:20:44.248Z,1007.76
2022-10-14T18:21:43.244Z,1007.67
2022-10-14T18:22:43.266Z,1007.76
2022-10-14T18:23:43.235Z,1007.75
2022-10-14T18:24:43.210Z,1007.72
2022-10-14T18:25:43.243Z,1007.73
2022-10-14T18:26:43.187Z,1007.75
2022-10-14T18:27:43.183Z,1007.74
2022-10-14T18:28:43.243Z,1007.72
2022-10-14T18:29:43.160Z,1007.75
2022-10-14T18:30:43.160Z,1007.76
2022-10-14T18:31:43.225Z,1007.75
2022-10-14T18:32:43.172Z,1007.71
2022-10-14T18:33:43.124Z,1007.74
2022-10-14T18:34:43.097Z,1007.68
2022-10-14T18:35:46.483Z,1007.65
2022-10-14T18:36:44.085Z,1007.58
2022-10-14T18:37:43.081Z,1007.59
2022-10-14T18:38:43.074Z,1007.56
2022-10-14T18:39:43.051Z,1007.55
2022-10-14T18:40:43.053Z,1007.53
2022-10-14T18:41:43.034Z,1007.51
2022-10-14T18:42:43.025Z,1007.50
2022-10-14T18:43:43.024Z,1007.51
2022-10-14T18:44:43.004Z,1007.41
2022-10-14T18:45:42.991Z,1007.46
2022-10-14T18:46:42.982Z,1007.42
2022-10-14T18:47:42.969Z,1007.39
2022-10-14T18:48:42.994Z,1007.41
2022-10-14T18:49:42.960Z,1007.40
2022-10-14T18:50:42.933Z,1007.36
2022-10-14T18:51:42.929Z,1007.35
2022-10-14T18:52:42.909Z,1007.35
2022-10-14T18:53:42.902Z,1007.27
2022-10-14T18:54:42.910Z,1007.30
2022-10-14T18:55:42.895Z,1007.32
2022-10-14T18:56:42.875Z,1007.31
2022-10-14T18:57:42.867Z,1007.30
2022-10-14T18:58:42.880Z,1007.22
2022-10-14T18:59:42.834Z,1007.24
2022-10-14T19:00:42.839Z,1007.25
2022-10-14T19:01:42.947Z,1007.37
2022-10-14T19:02:42.817Z,1007.38
2022-10-14T19:03:42.793Z,1007.39
2022-10-14T19:04:42.826Z,1007.34
2022-10-14T19:05:42.795Z,1007.38
2022-10-14T19:06:42.766Z,1007.38
2022-10-14T19:07:42.775Z,1007.37
2022-10-14T19:08:42.744Z,1007.33
2022-10-14T19:09:42.740Z,1007.37
2022-10-14T19:10:42.727Z,1007.41
2022-10-14T19:11:42.717Z,1007.39
2022-10-14T19:12:42.706Z,1007.38
2022-10-14T19:13:42.712Z,1007.32
2022-10-14T19:14:42.715Z,1007.36
2022-10-14T19:15:44.636Z,1007.37
2022-10-14T19:16:42.661Z,1007.29
2022-10-14T19:17:42.662Z,1007.28
2022-10-14T19:18:42.645Z,1007.26
2022-10-14T19:19:42.648Z,1007.32
2022-10-14T19:20:42.643Z,1007.29
2022-10-14T19:21:42.614Z,1007.27
2022-10-14T19:22:42.597Z,1007.26
2022-10-14T19:23:42.590Z,1007.23
2022-10-14T19:24:42.580Z,1007.23
2022-10-14T19:25:51.356Z,1007.24
2022-10-14T19:26:42.633Z,1007.21
2022-10-14T19:27:42.658Z,1007.17
2022-10-14T19:28:42.636Z,1007.17
2022-10-14T19:29:42.631Z,1007.22
2022-10-14T19:30:42.538Z,1007.14
2022-10-14T19:31:42.506Z,1007.13
2022-10-14T19:32:42.504Z,1007.13
2022-10-14T19:33:42.481Z,1007.08
2022-10-14T19:34:47.087Z,1007.12
2022-10-14T19:35:42.483Z,1007.03
2022-10-14T19:36:42.475Z,1007.07
2022-10-14T19:37:42.443Z,1007.04
2022-10-14T19:38:42.438Z,1007.02
2022-10-14T19:39:42.424Z,1007.02
2022-10-14T19:40:42.440Z,1007.01
2022-10-14T19:41:42.403Z,1006.99
2022-10-14T19:42:42.392Z,1006.98
2022-10-14T19:43:42.379Z,1006.82
2022-10-14T19:44:42.367Z,1006.89
2022-10-14T19:45:43.777Z,1006.87
2022-10-14T19:46:42.371Z,1006.90
2022-10-14T19:47:42.339Z,1006.92
2022-10-14T19:48:42.329Z,1006.86
2022-10-14T19:49:42.313Z,1006.92
2022-10-14T19:50:42.311Z,1006.89
2022-10-14T19:51:42.315Z,1006.93
2022-10-14T19:52:42.307Z,1006.86
2022-10-14T19:53:42.276Z,1006.87
2022-10-14T19:54:42.259Z,1006.87
2022-10-14T19:55:42.255Z,1006.85
2022-10-14T19:56:42.238Z,1006.88
2022-10-14T19:57:42.239Z,1006.87
2022-10-14T19:58:44.722Z,1006.84
2022-10-14T19:59:42.404Z,1006.86
2022-10-14T20:00:42.207Z,1006.82
2022-10-14T20:01:49.919Z,1006.84
2022-10-14T20:02:50.863Z,1006.87
2022-10-14T20:03:42.257Z,1006.83
2022-10-14T20:04:49.794Z,1006.80
2022-10-14T20:05:42.242Z,1006.79
2022-10-14T20:06:42.857Z,1006.79
2022-10-14T20:07:42.178Z,1006.84
2022-10-14T20:08:42.147Z,1006.76
2022-10-14T20:09:42.110Z,1006.77
2022-10-14T20:10:42.268Z,1006.81
2022-10-14T20:11:42.092Z,1006.80
2022-10-14T20:12:42.079Z,1006.81
2022-10-14T20:13:42.090Z,1006.81
2022-10-14T20:14:42.061Z,1006.72
2022-10-14T20:15:42.052Z,1006.77
2022-10-14T20:16:42.062Z,1006.73
2022-10-14T20:17:42.028Z,1006.73
2022-10-14T20:18:42.042Z,1006.75
2022-10-14T20:19:42.031Z,1006.66
2022-10-14T20:20:41.987Z,1006.73
2022-10-14T20:21:41.975Z,1006.70
2022-10-14T20:22:41.969Z,1006.66
2022-10-14T20:23:41.968Z,1006.66
2022-10-14T20:24:41.973Z,1006.67
2022-10-14T20:25:41.954Z,1006.69
2022-10-14T20:26:41.924Z,1006.60
2022-10-14T20:27:41.917Z,1006.65
2022-10-14T20:28:41.984Z,1006.63
2022-10-14T20:29:41.911Z,1006.61
2022-10-14T20:30:41.895Z,1006.57
2022-10-14T20:31:41.887Z,1006.60
2022-10-14T20:32:41.894Z,1006.64
2022-10-14T20:33:41.861Z,1006.61
2022-10-14T20:34:41.846Z,1006.54
2022-10-14T20:35:41.836Z,1006.58
2022-10-14T20:36:41.830Z,1006.54
2022-10-14T20:37:41.811Z,1006.52
2022-10-14T20:38:41.826Z,1006.57
2022-10-14T20:39:41.805Z,1006.54
2022-10-14T20:40:41.800Z,1006.52
2022-10-14T20:41:41.768Z,1006.59
2022-10-14T20:42:41.761Z,1006.57
2022-10-14T20:43:41.763Z,1006.52
2022-10-14T20:44:41.772Z,1006.52
2022-10-14T20:45:41.739Z,1006.49
2022-10-14T20:46:41.730Z,1006.41
2022-10-14T20:47:41.711Z,1006.43
2022-10-14T20:48:41.696Z,1006.40
2022-10-14T20:49:41.688Z,1006.43
2022-10-14T20:50:41.706Z,1006.42
2022-10-14T20:51:41.667Z,1006.35
2022-10-14T20:52:41.649Z,1006.34
2022-10-14T20:54:41.633Z,1006.31
2022-10-14T20:55:41.627Z,1006.23
2022-10-14T20:56:41.655Z,1006.20
2022-10-14T20:57:41.621Z,1006.24
2022-10-14T20:58:41.601Z,1006.27
2022-10-14T20:59:41.584Z,1006.27
2022-10-14T21:00:41.566Z,1006.23
2022-10-14T21:01:41.653Z,1006.16
2022-10-14T21:03:41.553Z,1006.18
2022-10-14T21:04:49.469Z,1006.20
2022-10-14T21:05:41.578Z,1006.16
2022-10-14T21:06:41.562Z,1006.16
2022-10-14T21:07:41.584Z,1006.11
2022-10-14T21:08:41.520Z,1006.18
2022-10-14T21:09:41.468Z,1006.16
2022-10-14T21:10:41.462Z,1006.15
2022-10-14T21:11:41.561Z,1006.23
2022-10-14T21:12:43.127Z,1006.12
2022-10-14T21:13:41.437Z,1006.16
2022-10-14T21:14:41.457Z,1006.11
2022-10-14T21:15:41.417Z,1006.14
2022-10-14T21:16:41.405Z,1006.10
2022-10-14T21:17:41.381Z,1006.10
2022-10-14T21:18:41.376Z,1006.11
2022-10-14T21:19:41.387Z,1006.05
2022-10-14T21:20:41.410Z,1006.16
2022-10-14T21:21:41.355Z,1006.03
2022-10-14T21:22:41.364Z,1006.08
2022-10-14T21:23:41.323Z,1006.06
2022-10-14T21:24:41.307Z,1006.04
2022-10-14T21:25:41.309Z,1005.98
2022-10-14T21:26:41.302Z,1006.05
2022-10-14T21:27:41.281Z,1006.00
2022-10-14T21:28:41.328Z,1005.97
2022-10-14T21:29:41.264Z,1006.03
2022-10-14T21:30:41.256Z,1005.97
2022-10-14T21:31:41.252Z,1005.96
2022-10-14T21:32:41.231Z,1005.90
2022-10-14T21:33:41.253Z,1005.89
2022-10-14T21:34:41.216Z,1005.88
2022-10-14T21:35:41.203Z,1005.87
2022-10-14T21:36:41.191Z,1005.86
2022-10-14T21:37:41.191Z,1005.81
2022-10-14T21:38:41.235Z,1005.85
2022-10-14T21:39:41.173Z,1005.81
2022-10-14T21:40:41.138Z,1005.79
2022-10-14T21:41:41.134Z,1005.74
2022-10-14T21:42:41.133Z,1005.72
2022-10-14T21:43:41.125Z,1005.72
2022-10-14T21:44:41.125Z,1005.76
2022-10-14T21:45:41.096Z,1005.74
2022-10-14T21:46:41.077Z,1005.76
2022-10-14T21:47:41.073Z,1005.72
2022-10-14T21:48:41.067Z,1005.73
2022-10-14T21:49:41.076Z,1005.66
2022-10-14T21:50:41.036Z,1005.75
2022-10-14T21:51:41.031Z,1005.66
2022-10-14T21:52:41.015Z,1005.71
2022-10-14T21:53:41.010Z,1005.66
2022-10-14T21:54:41.000Z,1005.61
2022-10-14T21:55:41.003Z,1005.61
2022-10-14T21:56:40.972Z,1005.58
2022-10-14T21:57:40.964Z,1005.61
2022-10-14T21:58:40.951Z,1005.58
2022-10-14T21:59:40.942Z,1005.58
2022-10-14T22:00:40.962Z,1005.50
2022-10-14T22:01:40.984Z,1005.50
2022-10-14T22:02:40.912Z,1005.53
2022-10-14T22:03:40.904Z,1005.53
2022-10-14T22:04:40.886Z,1005.52
2022-10-14T22:05:40.891Z,1005.47
2022-10-14T22:06:40.879Z,1005.47
2022-10-14T22:07:40.888Z,1005.47
2022-10-14T22:08:40.853Z,1005.43
2022-10-14T22:09:40.843Z,1005.39
2022-10-14T22:10:40.837Z,1005.35
2022-10-14T22:11:40.820Z,1005.36
2022-10-14T22:12:40.820Z,1005.37
2022-10-14T22:13:40.805Z,1005.29
2022-10-14T22:14:40.791Z,1005.32
2022-10-14T22:15:40.778Z,1005.38
2022-10-14T22:16:40.783Z,1005.31
2022-10-14T22:17:40.753Z,1005.33
2022-10-14T22:18:40.748Z,1005.32
2022-10-14T22:19:48.356Z,1005.31
2022-10-14T22:20:49.432Z,1005.31
2022-10-14T22:21:40.759Z,1005.32
2022-10-14T22:22:40.756Z,1005.28
2022-10-14T22:23:40.803Z,1005.24
2022-10-14T22:24:40.698Z,1005.17
2022-10-14T22:25:40.672Z,1005.15
2022-10-14T22:26:40.677Z,1005.18
2022-10-14T22:27:40.674Z,1005.19
2022-10-14T22:28:40.663Z,1005.22
2022-10-14T22:29:40.639Z,1005.17
2022-10-14T22:30:40.616Z,1005.18
2022-10-14T22:31:40.610Z,1005.11
2022-10-14T22:32:40.654Z,1005.12
2022-10-14T22:33:40.613Z,1005.09
2022-10-14T22:34:40.582Z,1005.14
2022-10-14T22:35:40.565Z,1005.18
2022-10-14T22:36:40.555Z,1005.19
2022-10-14T22:37:40.540Z,1005.14
2022-10-14T22:38:40.536Z,1005.15
2022-10-14T22:39:40.539Z,1005.15
2022-10-14T22:40:40.524Z,1005.13
2022-10-14T22:41:40.496Z,1005.18
2022-10-14T22:42:42.288Z,1005.15
2022-10-14T22:43:40.486Z,1005.12
2022-10-14T22:44:49.512Z,1005.17
2022-10-14T22:45:40.460Z,1005.11
2022-10-14T22:46:40.506Z,1005.13
2022-10-14T22:47:40.499Z,1005.09
2022-10-14T22:48:40.486Z,1005.07
2022-10-14T22:49:40.537Z,1005.01
2022-10-14T22:50:40.416Z,1005.05
2022-10-14T22:51:40.698Z,1005.05
2022-10-14T22:52:40.409Z,1005.01
2022-10-14T22:53:40.383Z,1005.02
2022-10-14T22:54:40.411Z,1004.95
2022-10-14T22:55:40.368Z,1004.96
2022-10-14T22:56:40.384Z,1005.00
2022-10-14T22:57:40.338Z,1004.97
2022-10-14T22:58:40.324Z,1004.88
2022-10-14T22:59:40.312Z,1004.92
2022-10-14T23:00:40.318Z,1004.91
2022-10-14T23:01:40.308Z,1004.86
2022-10-14T23:02:40.344Z,1004.92
2022-10-14T23:03:40.274Z,1004.92
2022-10-14T23:04:40.283Z,1004.89
2022-10-14T23:05:40.258Z,1004.85
2022-10-14T23:06:40.252Z,1004.85
2022-10-14T23:07:40.237Z,1004.83
2022-10-14T23:08:40.217Z,1004.87
2022-10-14T23:09:40.216Z,1004.83
2022-10-14T23:10:40.200Z,1004.79
2022-10-14T23:11:40.206Z,1004.79
2022-10-14T23:12:40.180Z,1004.84
2022-10-14T23:13:40.167Z,1004.85
2022-10-14T23:14:40.162Z,1004.78
2022-10-14T23:15:40.148Z,1004.76
2022-10-14T23:16:40.158Z,1004.86
2022-10-14T23:17:40.142Z,1004.84
2022-10-14T23:18:40.113Z,1004.86
2022-10-14T23:19:40.098Z,1004.81
2022-10-14T23:20:40.108Z,1004.82
2022-10-14T23:21:40.116Z,1004.79
2022-10-14T23:22:40.088Z,1004.82
2022-10-14T23:23:40.066Z,1004.77
2022-10-14T23:24:40.051Z,1004.76
2022-10-14T23:25:40.048Z,1004.72
2022-10-14T23:26:40.035Z,1004.76
2022-10-14T23:27:40.081Z,1004.74
2022-10-14T23:28:40.127Z,1004.73
2022-10-14T23:29:40.006Z,1004.78
2022-10-14T23:30:39.998Z,1004.76
2022-10-14T23:31:39.992Z,1004.81
2022-10-14T23:32:39.972Z,1004.83
2022-10-14T23:33:39.951Z,1004.79
2022-10-14T23:34:39.962Z,1004.86
2022-10-14T23:35:39.937Z,1004.85
2022-10-14T23:36:40.030Z,1004.83
2022-10-14T23:37:39.914Z,1004.81
2022-10-14T23:38:39.921Z,1004.82
2022-10-14T23:39:39.886Z,1004.77
2022-10-14T23:40:39.915Z,1004.78
2022-10-14T23:41:39.874Z,1004.70
2022-10-14T23:42:39.866Z,1004.76
2022-10-14T23:43:39.863Z,1004.79
2022-10-14T23:44:39.853Z,1004.73
2022-10-14T23:45:39.857Z,1004.70
2022-10-14T23:46:39.857Z,1004.75
2022-10-14T23:47:39.810Z,1004.64
2022-10-14T23:48:39.796Z,1004.65
2022-10-14T23:49:39.799Z,1004.71
2022-10-14T23:50:39.783Z,1004.68
2022-10-14T23:51:39.789Z,1004.68
2022-10-14T23:52:39.769Z,1004.61
2022-10-14T23:53:39.745Z,1004.61
2022-10-14T23:54:39.756Z,1004.59
2022-10-14T23:55:39.728Z,1004.60
2022-10-14T23:56:39.731Z,1004.56
2022-10-14T23:57:39.710Z,1004.67
2022-10-14T23:58:39.692Z,1004.59
2022-10-14T23:59:39.677Z,1004.57
